sensor_id;sensor_type;location;lat;lon;timestamp;pressure;altitude;pressure_sealevel;temperature;humidity
21980;BME280;11154;48.558;9.234;2022-12-19T00:01:56;98451.09;;;4.70;62.24
21980;BME280;11154;48.558;9.234;2022-12-19T00:03:59;98457.66;;;4.77;61.74
21980;BME280;11154;48.558;9.234;2022-12-19T00:06:01;98446.38;;;4.87;63.91
21980;BME280;11154;48.558;9.234;2022-12-19T00:08:03;98454.19;;;4.89;63.94
21980;BME280;11154;48.558;9.234;2022-12-19T00:10:06;98462.19;;;5.24;63.22
21980;BME280;11154;48.558;9.234;2022-12-19T00:12:11;98465.53;;;6.12;61.13
21980;BME280;11154;48.558;9.234;2022-12-19T00:14:13;98458.41;;;6.48;58.79
21980;BME280;11154;48.558;9.234;2022-12-19T00:16:18;98467.28;;;6.81;56.03
21980;BME280;11154;48.558;9.234;2022-12-19T00:18:20;98463.06;;;7.13;53.37
21980;BME280;11154;48.558;9.234;2022-12-19T00:20:22;98467.44;;;7.47;51.39
21980;BME280;11154;48.558;9.234;2022-12-19T00:22:24;98467.31;;;7.81;49.62
21980;BME280;11154;48.558;9.234;2022-12-19T00:24:25;98472.47;;;8.15;48.07
21980;BME280;11154;48.558;9.234;2022-12-19T00:26:29;98466.38;;;8.46;46.60
21980;BME280;11154;48.558;9.234;2022-12-19T00:28:31;98463.38;;;8.71;45.53
21980;BME280;11154;48.558;9.234;2022-12-19T00:30:33;98453.41;;;8.95;44.94
21980;BME280;11154;48.558;9.234;2022-12-19T00:32:36;98447.94;;;9.17;44.09
21980;BME280;11154;48.558;9.234;2022-12-19T00:34:38;98459.41;;;9.37;43.52
21980;BME280;11154;48.558;9.234;2022-12-19T00:36:39;98455.16;;;9.55;43.19
21980;BME280;11154;48.558;9.234;2022-12-19T00:38:44;98451.19;;;9.70;42.96
21980;BME280;11154;48.558;9.234;2022-12-19T00:40:46;98443.53;;;9.86;42.55
21980;BME280;11154;48.558;9.234;2022-12-19T00:42:47;98443.34;;;9.99;42.14
21980;BME280;11154;48.558;9.234;2022-12-19T00:44:49;98430.81;;;10.10;41.46
21980;BME280;11154;48.558;9.234;2022-12-19T00:46:50;98431.66;;;10.20;41.91
21980;BME280;11154;48.558;9.234;2022-12-19T00:48:54;98443.28;;;10.28;41.57
21980;BME280;11154;48.558;9.234;2022-12-19T00:50:58;98428.06;;;10.40;41.44
21980;BME280;11154;48.558;9.234;2022-12-19T00:53:00;98419.38;;;10.47;40.97
21980;BME280;11154;48.558;9.234;2022-12-19T00:55:02;98424.69;;;10.57;40.45
21980;BME280;11154;48.558;9.234;2022-12-19T00:57:03;98429.47;;;10.63;40.32
21980;BME280;11154;48.558;9.234;2022-12-19T00:59:05;98433.25;;;10.70;40.31
21980;BME280;11154;48.558;9.234;2022-12-19T01:01:08;98426.38;;;10.77;40.01
21980;BME280;11154;48.558;9.234;2022-12-19T01:03:10;98431.16;;;10.82;39.78
21980;BME280;11154;48.558;9.234;2022-12-19T01:05:13;98424.44;;;10.88;39.85
21980;BME280;11154;48.558;9.234;2022-12-19T01:07:15;98419.53;;;10.93;39.57
21980;BME280;11154;48.558;9.234;2022-12-19T01:09:16;98417.16;;;10.99;39.04
21980;BME280;11154;48.558;9.234;2022-12-19T01:11:21;98426.50;;;11.03;38.93
21980;BME280;11154;48.558;9.234;2022-12-19T01:13:43;98449.50;;;11.04;38.92
21980;BME280;11154;48.558;9.234;2022-12-19T01:15:43;98442.88;;;11.08;39.15
21980;BME280;11154;48.558;9.234;2022-12-19T01:17:45;98425.38;;;11.15;38.92
21980;BME280;11154;48.558;9.234;2022-12-19T01:19:47;98427.75;;;11.18;38.64
21980;BME280;11154;48.558;9.234;2022-12-19T01:21:50;98423.81;;;11.22;38.81
21980;BME280;11154;48.558;9.234;2022-12-19T01:23:52;98418.50;;;11.22;38.86
21980;BME280;11154;48.558;9.234;2022-12-19T01:25:54;98429.84;;;11.24;38.45
21980;BME280;11154;48.558;9.234;2022-12-19T01:27:56;98431.06;;;11.30;38.70
21980;BME280;11154;48.558;9.234;2022-12-19T01:29:58;98428.28;;;11.31;38.58
21980;BME280;11154;48.558;9.234;2022-12-19T01:31:59;98427.16;;;11.34;38.56
21980;BME280;11154;48.558;9.234;2022-12-19T01:34:01;98418.44;;;11.41;38.48
21980;BME280;11154;48.558;9.234;2022-12-19T01:36:07;98413.66;;;11.45;38.51
21980;BME280;11154;48.558;9.234;2022-12-19T01:38:12;98411.41;;;11.49;38.39
21980;BME280;11154;48.558;9.234;2022-12-19T01:40:13;98402.31;;;11.52;38.28
21980;BME280;11154;48.558;9.234;2022-12-19T01:42:16;98407.53;;;11.53;38.85
21980;BME280;11154;48.558;9.234;2022-12-19T01:44:18;98421.34;;;11.57;38.73
21980;BME280;11154;48.558;9.234;2022-12-19T01:46:25;98412.81;;;11.63;39.17
21980;BME280;11154;48.558;9.234;2022-12-19T01:48:30;98406.63;;;11.62;38.94
21980;BME280;11154;48.558;9.234;2022-12-19T01:50:36;98405.31;;;11.66;38.75
21980;BME280;11154;48.558;9.234;2022-12-19T01:52:39;98392.44;;;11.71;38.42
21980;BME280;11154;48.558;9.234;2022-12-19T01:54:43;98393.97;;;11.74;38.28
21980;BME280;11154;48.558;9.234;2022-12-19T01:56:47;98392.81;;;11.76;38.29
21980;BME280;11154;48.558;9.234;2022-12-19T01:58:51;98391.84;;;11.77;38.09
21980;BME280;11154;48.558;9.234;2022-12-19T02:00:54;98394.19;;;11.80;38.01
21980;BME280;11154;48.558;9.234;2022-12-19T02:02:59;98390.56;;;11.81;37.85
21980;BME280;11154;48.558;9.234;2022-12-19T02:05:04;98394.06;;;11.82;37.73
21980;BME280;11154;48.558;9.234;2022-12-19T02:07:07;98393.06;;;11.83;37.66
21980;BME280;11154;48.558;9.234;2022-12-19T02:09:10;98389.13;;;11.87;37.83
21980;BME280;11154;48.558;9.234;2022-12-19T02:11:13;98391.34;;;11.91;37.49
21980;BME280;11154;48.558;9.234;2022-12-19T02:13:15;98367.91;;;11.95;37.70
21980;BME280;11154;48.558;9.234;2022-12-19T02:15:17;98363.56;;;11.94;37.46
21980;BME280;11154;48.558;9.234;2022-12-19T02:17:25;98370.41;;;11.96;37.31
21980;BME280;11154;48.558;9.234;2022-12-19T02:19:58;98370.09;;;11.99;37.31
21980;BME280;11154;48.558;9.234;2022-12-19T02:22:07;98371.50;;;12.03;37.30
21980;BME280;11154;48.558;9.234;2022-12-19T02:24:48;98360.06;;;12.11;37.24
21980;BME280;11154;48.558;9.234;2022-12-19T02:27:05;98351.47;;;12.17;36.98
21980;BME280;11154;48.558;9.234;2022-12-19T02:29:38;98354.41;;;12.23;36.67
21980;BME280;11154;48.558;9.234;2022-12-19T02:31:45;98347.59;;;12.28;36.74
21980;BME280;11154;48.558;9.234;2022-12-19T02:33:54;98359.34;;;12.35;36.83
21980;BME280;11154;48.558;9.234;2022-12-19T02:36:00;98354.09;;;12.43;36.47
21980;BME280;11154;48.558;9.234;2022-12-19T02:38:10;98360.50;;;12.50;36.36
21980;BME280;11154;48.558;9.234;2022-12-19T02:40:19;98356.34;;;12.56;36.49
21980;BME280;11154;48.558;9.234;2022-12-19T02:42:27;98358.28;;;12.63;36.17
21980;BME280;11154;48.558;9.234;2022-12-19T02:44:30;98365.66;;;12.69;36.33
21980;BME280;11154;48.558;9.234;2022-12-19T02:46:33;98363.81;;;12.70;35.95
21980;BME280;11154;48.558;9.234;2022-12-19T02:48:37;98370.84;;;12.71;37.33
21980;BME280;11154;48.558;9.234;2022-12-19T02:50:40;98361.84;;;12.72;38.11
21980;BME280;11154;48.558;9.234;2022-12-19T02:52:44;98353.59;;;12.65;37.88
21980;BME280;11154;48.558;9.234;2022-12-19T02:54:47;98346.44;;;12.66;37.31
21980;BME280;11154;48.558;9.234;2022-12-19T02:56:51;98340.66;;;12.70;37.45
21980;BME280;11154;48.558;9.234;2022-12-19T02:59:05;98353.69;;;12.73;37.42
21980;BME280;11154;48.558;9.234;2022-12-19T03:01:19;98343.53;;;12.77;37.20
21980;BME280;11154;48.558;9.234;2022-12-19T03:03:30;98360.06;;;12.80;37.22
21980;BME280;11154;48.558;9.234;2022-12-19T03:05:44;98359.09;;;12.81;37.04
21980;BME280;11154;48.558;9.234;2022-12-19T03:07:53;98356.09;;;12.84;37.12
21980;BME280;11154;48.558;9.234;2022-12-19T03:10:02;98364.78;;;12.86;36.98
21980;BME280;11154;48.558;9.234;2022-12-19T03:14:25;98375.88;;;12.91;36.83
21980;BME280;11154;48.558;9.234;2022-12-19T03:16:28;98375.56;;;12.94;37.03
21980;BME280;11154;48.558;9.234;2022-12-19T03:18:30;98370.94;;;12.96;36.74
21980;BME280;11154;48.558;9.234;2022-12-19T03:20:42;98369.91;;;12.97;36.77
21980;BME280;11154;48.558;9.234;2022-12-19T03:22:44;98367.25;;;12.97;36.74
21980;BME280;11154;48.558;9.234;2022-12-19T03:24:46;98371.47;;;12.99;36.86
21980;BME280;11154;48.558;9.234;2022-12-19T03:26:53;98375.94;;;12.99;36.86
21980;BME280;11154;48.558;9.234;2022-12-19T03:29:00;98380.00;;;13.03;37.17
21980;BME280;11154;48.558;9.234;2022-12-19T03:31:05;98360.28;;;13.04;37.11
21980;BME280;11154;48.558;9.234;2022-12-19T03:33:10;98376.00;;;13.07;37.10
21980;BME280;11154;48.558;9.234;2022-12-19T03:35:16;98374.31;;;13.06;37.08
21980;BME280;11154;48.558;9.234;2022-12-19T03:37:23;98377.00;;;13.06;37.28
21980;BME280;11154;48.558;9.234;2022-12-19T03:39:26;98384.03;;;13.07;37.47
21980;BME280;11154;48.558;9.234;2022-12-19T03:41:30;98387.69;;;13.06;37.58
21980;BME280;11154;48.558;9.234;2022-12-19T03:43:50;98390.34;;;13.06;37.55
21980;BME280;11154;48.558;9.234;2022-12-19T03:45:54;98381.03;;;13.10;37.58
21980;BME280;11154;48.558;9.234;2022-12-19T03:47:59;98373.69;;;13.12;37.65
21980;BME280;11154;48.558;9.234;2022-12-19T03:50:05;98395.91;;;13.12;37.59
21980;BME280;11154;48.558;9.234;2022-12-19T03:52:12;98396.75;;;13.13;37.77
21980;BME280;11154;48.558;9.234;2022-12-19T03:54:22;98401.09;;;13.14;37.89
21980;BME280;11154;48.558;9.234;2022-12-19T03:56:32;98401.75;;;13.16;37.97
21980;BME280;11154;48.558;9.234;2022-12-19T03:58:37;98388.41;;;13.16;37.93
21980;BME280;11154;48.558;9.234;2022-12-19T04:00:44;98404.97;;;13.19;38.20
21980;BME280;11154;48.558;9.234;2022-12-19T04:02:48;98403.84;;;13.22;38.14
21980;BME280;11154;48.558;9.234;2022-12-19T04:04:53;98394.81;;;13.23;38.10
21980;BME280;11154;48.558;9.234;2022-12-19T04:06:56;98394.66;;;13.24;38.05
21980;BME280;11154;48.558;9.234;2022-12-19T04:08:59;98403.34;;;13.26;38.21
21980;BME280;11154;48.558;9.234;2022-12-19T04:11:06;98402.19;;;13.29;38.45
21980;BME280;11154;48.558;9.234;2022-12-19T04:13:13;98395.84;;;13.30;38.47
21980;BME280;11154;48.558;9.234;2022-12-19T04:15:19;98404.56;;;13.32;38.44
21980;BME280;11154;48.558;9.234;2022-12-19T04:17:29;98401.72;;;13.33;38.68
21980;BME280;11154;48.558;9.234;2022-12-19T04:19:37;98397.25;;;13.34;38.88
21980;BME280;11154;48.558;9.234;2022-12-19T04:21:48;98396.91;;;13.37;38.83
21980;BME280;11154;48.558;9.234;2022-12-19T04:23:56;98383.38;;;13.38;38.83
21980;BME280;11154;48.558;9.234;2022-12-19T04:26:03;98394.94;;;13.39;39.01
21980;BME280;11154;48.558;9.234;2022-12-19T04:28:12;98392.94;;;13.41;38.98
21980;BME280;11154;48.558;9.234;2022-12-19T04:30:17;98393.47;;;13.44;39.06
21980;BME280;11154;48.558;9.234;2022-12-19T04:32:19;98394.97;;;13.47;38.95
21980;BME280;11154;48.558;9.234;2022-12-19T04:34:21;98393.31;;;13.46;38.69
21980;BME280;11154;48.558;9.234;2022-12-19T04:36:24;98393.31;;;13.46;38.47
21980;BME280;11154;48.558;9.234;2022-12-19T04:38:26;98389.47;;;13.48;38.52
21980;BME280;11154;48.558;9.234;2022-12-19T04:40:28;98392.97;;;13.49;38.33
21980;BME280;11154;48.558;9.234;2022-12-19T04:42:31;98391.97;;;13.50;38.39
21980;BME280;11154;48.558;9.234;2022-12-19T04:44:32;98393.66;;;13.51;38.56
21980;BME280;11154;48.558;9.234;2022-12-19T04:46:34;98389.00;;;13.53;38.73
21980;BME280;11154;48.558;9.234;2022-12-19T04:48:36;98395.00;;;13.55;39.06
21980;BME280;11154;48.558;9.234;2022-12-19T04:50:38;98385.19;;;13.55;39.14
21980;BME280;11154;48.558;9.234;2022-12-19T04:52:39;98396.69;;;13.56;39.23
21980;BME280;11154;48.558;9.234;2022-12-19T04:54:41;98384.00;;;13.58;38.96
21980;BME280;11154;48.558;9.234;2022-12-19T04:56:43;98387.38;;;13.60;39.04
21980;BME280;11154;48.558;9.234;2022-12-19T04:58:46;98382.84;;;13.60;38.88
21980;BME280;11154;48.558;9.234;2022-12-19T05:00:48;98377.50;;;13.60;38.66
21980;BME280;11154;48.558;9.234;2022-12-19T05:02:49;98381.69;;;13.63;38.61
21980;BME280;11154;48.558;9.234;2022-12-19T05:04:51;98382.56;;;13.63;38.63
21980;BME280;11154;48.558;9.234;2022-12-19T05:06:53;98371.00;;;13.63;38.87
21980;BME280;11154;48.558;9.234;2022-12-19T05:08:54;98369.84;;;13.65;39.08
21980;BME280;11154;48.558;9.234;2022-12-19T05:10:58;98369.03;;;13.65;39.33
21980;BME280;11154;48.558;9.234;2022-12-19T05:12:59;98372.38;;;13.67;39.53
21980;BME280;11154;48.558;9.234;2022-12-19T05:15:03;98356.81;;;13.70;39.35
21980;BME280;11154;48.558;9.234;2022-12-19T05:17:05;98358.19;;;13.74;39.68
21980;BME280;11154;48.558;9.234;2022-12-19T05:19:07;98355.06;;;13.78;39.58
21980;BME280;11154;48.558;9.234;2022-12-19T05:21:09;98356.91;;;13.86;39.56
21980;BME280;11154;48.558;9.234;2022-12-19T05:23:11;98357.44;;;13.89;39.60
21980;BME280;11154;48.558;9.234;2022-12-19T05:25:13;98355.09;;;13.94;39.42
21980;BME280;11154;48.558;9.234;2022-12-19T05:27:14;98349.09;;;14.00;39.19
21980;BME280;11154;48.558;9.234;2022-12-19T05:29:16;98344.78;;;14.07;39.16
21980;BME280;11154;48.558;9.234;2022-12-19T05:31:20;98347.84;;;14.12;38.91
21980;BME280;11154;48.558;9.234;2022-12-19T05:33:21;98350.88;;;14.17;39.04
21980;BME280;11154;48.558;9.234;2022-12-19T05:35:23;98347.84;;;14.20;39.00
21980;BME280;11154;48.558;9.234;2022-12-19T05:37:25;98339.53;;;14.23;40.73
21980;BME280;11154;48.558;9.234;2022-12-19T05:39:26;98345.19;;;14.20;39.67
21980;BME280;11154;48.558;9.234;2022-12-19T05:41:28;98341.81;;;14.18;39.15
21980;BME280;11154;48.558;9.234;2022-12-19T05:43:30;98347.53;;;14.15;38.92
21980;BME280;11154;48.558;9.234;2022-12-19T05:45:31;98342.16;;;14.15;38.81
21980;BME280;11154;48.558;9.234;2022-12-19T05:47:34;98343.16;;;14.14;38.56
21980;BME280;11154;48.558;9.234;2022-12-19T05:49:38;98347.69;;;14.14;38.54
21980;BME280;11154;48.558;9.234;2022-12-19T05:51:40;98348.69;;;14.13;38.31
21980;BME280;11154;48.558;9.234;2022-12-19T05:53:42;98341.31;;;14.15;38.07
21980;BME280;11154;48.558;9.234;2022-12-19T05:55:44;98335.81;;;14.16;38.11
21980;BME280;11154;48.558;9.234;2022-12-19T05:57:45;98341.81;;;14.18;38.08
21980;BME280;11154;48.558;9.234;2022-12-19T05:59:47;98325.47;;;14.21;38.00
21980;BME280;11154;48.558;9.234;2022-12-19T06:01:49;98329.81;;;14.22;37.76
21980;BME280;11154;48.558;9.234;2022-12-19T06:03:53;98327.78;;;14.24;37.83
21980;BME280;11154;48.558;9.234;2022-12-19T06:05:55;98330.16;;;14.27;37.88
21980;BME280;11154;48.558;9.234;2022-12-19T06:07:57;98337.19;;;14.28;38.08
21980;BME280;11154;48.558;9.234;2022-12-19T06:10:01;98342.19;;;14.31;38.09
21980;BME280;11154;48.558;9.234;2022-12-19T06:12:03;98344.56;;;14.34;38.22
21980;BME280;11154;48.558;9.234;2022-12-19T06:14:05;98336.19;;;14.37;38.23
21980;BME280;11154;48.558;9.234;2022-12-19T06:16:09;98337.53;;;14.41;38.20
21980;BME280;11154;48.558;9.234;2022-12-19T06:18:12;98334.38;;;14.45;38.34
21980;BME280;11154;48.558;9.234;2022-12-19T06:20:15;98330.34;;;14.49;38.39
21980;BME280;11154;48.558;9.234;2022-12-19T06:22:17;98331.69;;;14.53;38.47
21980;BME280;11154;48.558;9.234;2022-12-19T06:24:18;98339.22;;;14.58;38.51
21980;BME280;11154;48.558;9.234;2022-12-19T06:26:21;98337.22;;;14.60;38.55
21980;BME280;11154;48.558;9.234;2022-12-19T06:28:24;98337.91;;;14.62;39.49
21980;BME280;11154;48.558;9.234;2022-12-19T06:30:25;98332.69;;;14.60;39.69
21980;BME280;11154;48.558;9.234;2022-12-19T06:32:27;98339.56;;;14.55;39.41
21980;BME280;11154;48.558;9.234;2022-12-19T06:34:29;98335.34;;;14.52;39.00
21980;BME280;11154;48.558;9.234;2022-12-19T06:36:32;98331.19;;;14.50;38.90
21980;BME280;11154;48.558;9.234;2022-12-19T06:38:34;98338.56;;;14.48;38.91
21980;BME280;11154;48.558;9.234;2022-12-19T06:40:40;98334.03;;;14.48;38.91
21980;BME280;11154;48.558;9.234;2022-12-19T06:42:59;98326.19;;;14.47;38.84
21980;BME280;11154;48.558;9.234;2022-12-19T06:45:01;98336.88;;;14.47;38.83
21980;BME280;11154;48.558;9.234;2022-12-19T06:47:03;98330.34;;;14.49;38.85
21980;BME280;11154;48.558;9.234;2022-12-19T06:49:05;98323.81;;;14.52;38.94
21980;BME280;11154;48.558;9.234;2022-12-19T06:51:06;98330.84;;;14.53;38.85
21980;BME280;11154;48.558;9.234;2022-12-19T06:53:09;98341.22;;;14.56;38.68
21980;BME280;11154;48.558;9.234;2022-12-19T06:55:11;98333.88;;;14.58;38.81
21980;BME280;11154;48.558;9.234;2022-12-19T06:57:12;98327.19;;;14.62;38.67
21980;BME280;11154;48.558;9.234;2022-12-19T06:59:15;98330.34;;;14.65;38.64
21980;BME280;11154;48.558;9.234;2022-12-19T07:01:17;98323.69;;;14.69;38.57
21980;BME280;11154;48.558;9.234;2022-12-19T07:03:23;98326.50;;;14.76;38.35
21980;BME280;11154;48.558;9.234;2022-12-19T07:05:25;98338.56;;;14.80;38.16
21980;BME280;11154;48.558;9.234;2022-12-19T07:07:28;98335.53;;;14.83;38.18
21980;BME280;11154;48.558;9.234;2022-12-19T07:09:32;98333.38;;;14.86;37.90
21980;BME280;11154;48.558;9.234;2022-12-19T07:11:34;98335.03;;;14.87;38.01
21980;BME280;11154;48.558;9.234;2022-12-19T07:13:35;98334.22;;;14.87;37.71
21980;BME280;11154;48.558;9.234;2022-12-19T07:15:37;98317.31;;;14.86;37.91
21980;BME280;11154;48.558;9.234;2022-12-19T07:17:40;98332.19;;;14.89;37.90
21980;BME280;11154;48.558;9.234;2022-12-19T07:19:42;98344.94;;;14.87;38.25
21980;BME280;11154;48.558;9.234;2022-12-19T07:21:44;98337.03;;;14.85;38.37
21980;BME280;11154;48.558;9.234;2022-12-19T07:23:47;98339.06;;;14.83;38.54
21980;BME280;11154;48.558;9.234;2022-12-19T07:25:50;98331.69;;;14.85;38.46
21980;BME280;11154;48.558;9.234;2022-12-19T07:27:51;98335.53;;;14.83;38.27
21980;BME280;11154;48.558;9.234;2022-12-19T07:29:53;98331.38;;;14.80;38.37
21980;BME280;11154;48.558;9.234;2022-12-19T07:31:55;98343.56;;;14.83;38.47
21980;BME280;11154;48.558;9.234;2022-12-19T07:33:57;98331.88;;;14.84;38.54
21980;BME280;11154;48.558;9.234;2022-12-19T07:35:58;98337.72;;;14.87;38.29
21980;BME280;11154;48.558;9.234;2022-12-19T07:38:01;98337.03;;;14.85;38.29
21980;BME280;11154;48.558;9.234;2022-12-19T07:40:03;98336.22;;;14.85;38.54
21980;BME280;11154;48.558;9.234;2022-12-19T07:42:07;98340.91;;;14.83;38.63
21980;BME280;11154;48.558;9.234;2022-12-19T07:44:08;98337.56;;;14.81;38.90
21980;BME280;11154;48.558;9.234;2022-12-19T07:46:12;98337.72;;;14.79;39.18
21980;BME280;11154;48.558;9.234;2022-12-19T07:48:14;98338.56;;;14.80;39.22
21980;BME280;11154;48.558;9.234;2022-12-19T07:50:15;98335.72;;;14.81;39.55
21980;BME280;11154;48.558;9.234;2022-12-19T07:52:17;98334.91;;;14.81;39.69
21980;BME280;11154;48.558;9.234;2022-12-19T07:54:19;98329.53;;;14.81;39.76
21980;BME280;11154;48.558;9.234;2022-12-19T07:56:20;98335.91;;;14.80;39.94
21980;BME280;11154;48.558;9.234;2022-12-19T07:58:23;98335.72;;;14.81;40.01
21980;BME280;11154;48.558;9.234;2022-12-19T08:00:25;98340.25;;;14.81;39.79
21980;BME280;11154;48.558;9.234;2022-12-19T08:02:27;98339.41;;;14.80;39.71
21980;BME280;11154;48.558;9.234;2022-12-19T08:04:28;98344.75;;;14.80;39.18
21980;BME280;11154;48.558;9.234;2022-12-19T08:06:30;98335.53;;;14.83;39.45
21980;BME280;11154;48.558;9.234;2022-12-19T08:08:33;98332.03;;;14.82;39.44
21980;BME280;11154;48.558;9.234;2022-12-19T08:10:34;98334.53;;;14.84;39.41
21980;BME280;11154;48.558;9.234;2022-12-19T08:12:36;98347.75;;;14.85;39.56
21980;BME280;11154;48.558;9.234;2022-12-19T08:14:39;98348.63;;;14.86;39.82
21980;BME280;11154;48.558;9.234;2022-12-19T08:16:40;98335.88;;;14.88;39.96
21980;BME280;11154;48.558;9.234;2022-12-19T08:18:42;98339.41;;;14.96;39.86
21980;BME280;11154;48.558;9.234;2022-12-19T08:20:44;98343.41;;;15.08;39.81
21980;BME280;11154;48.558;9.234;2022-12-19T08:22:46;98340.56;;;15.17;39.25
21980;BME280;11154;48.558;9.234;2022-12-19T08:24:48;98342.72;;;15.22;38.78
21980;BME280;11154;48.558;9.234;2022-12-19T08:26:49;98348.44;;;15.35;38.67
21980;BME280;11154;48.558;9.234;2022-12-19T08:28:51;98359.59;;;15.46;38.58
21980;BME280;11154;48.558;9.234;2022-12-19T08:30:54;98348.53;;;15.57;38.35
21980;BME280;11154;48.558;9.234;2022-12-19T08:32:56;98353.53;;;15.60;38.19
21980;BME280;11154;48.558;9.234;2022-12-19T08:34:57;98367.75;;;15.61;38.14
21980;BME280;11154;48.558;9.234;2022-12-19T08:36:59;98368.63;;;15.61;38.02
21980;BME280;11154;48.558;9.234;2022-12-19T08:39:01;98366.94;;;15.60;37.92
21980;BME280;11154;48.558;9.234;2022-12-19T08:41:02;98375.16;;;15.59;37.98
21980;BME280;11154;48.558;9.234;2022-12-19T08:43:04;98369.94;;;15.73;38.39
21980;BME280;11154;48.558;9.234;2022-12-19T08:45:07;98367.19;;;15.89;38.89
21980;BME280;11154;48.558;9.234;2022-12-19T08:47:10;98366.50;;;15.95;36.88
21980;BME280;11154;48.558;9.234;2022-12-19T08:49:11;98368.81;;;15.98;36.70
21980;BME280;11154;48.558;9.234;2022-12-19T08:51:14;98378.72;;;15.97;36.70
21980;BME280;11154;48.558;9.234;2022-12-19T08:53:16;98375.56;;;15.94;36.80
21980;BME280;11154;48.558;9.234;2022-12-19T08:55:18;98369.50;;;15.92;37.02
21980;BME280;11154;48.558;9.234;2022-12-19T08:57:20;98376.25;;;15.88;37.17
21980;BME280;11154;48.558;9.234;2022-12-19T08:59:21;98381.28;;;15.83;37.24
21980;BME280;11154;48.558;9.234;2022-12-19T09:01:23;98372.72;;;15.80;37.46
21980;BME280;11154;48.558;9.234;2022-12-19T09:03:26;98363.19;;;15.77;37.52
21980;BME280;11154;48.558;9.234;2022-12-19T09:05:28;98363.56;;;15.74;37.79
21980;BME280;11154;48.558;9.234;2022-12-19T09:07:29;98362.88;;;15.72;38.00
21980;BME280;11154;48.558;9.234;2022-12-19T09:09:31;98357.69;;;15.71;38.17
21980;BME280;11154;48.558;9.234;2022-12-19T09:11:33;98357.88;;;15.69;38.49
21980;BME280;11154;48.558;9.234;2022-12-19T09:13:35;98357.22;;;15.67;38.74
21980;BME280;11154;48.558;9.234;2022-12-19T09:15:37;98361.75;;;15.67;38.93
21980;BME280;11154;48.558;9.234;2022-12-19T09:17:40;98353.03;;;15.65;38.92
21980;BME280;11154;48.558;9.234;2022-12-19T09:19:43;98360.22;;;15.64;39.33
21980;BME280;11154;48.558;9.234;2022-12-19T09:21:45;98360.91;;;15.66;39.16
21980;BME280;11154;48.558;9.234;2022-12-19T09:23:47;98352.84;;;15.66;39.40
21980;BME280;11154;48.558;9.234;2022-12-19T09:25:49;98345.66;;;15.67;39.43
21980;BME280;11154;48.558;9.234;2022-12-19T09:27:50;98343.13;;;15.65;39.74
21980;BME280;11154;48.558;9.234;2022-12-19T09:29:52;98344.13;;;15.64;39.51
21980;BME280;11154;48.558;9.234;2022-12-19T09:31:54;98343.94;;;15.74;39.60
21980;BME280;11154;48.558;9.234;2022-12-19T09:33:55;98345.28;;;15.78;39.82
21980;BME280;11154;48.558;9.234;2022-12-19T09:35:59;98340.41;;;15.81;39.71
21980;BME280;11154;48.558;9.234;2022-12-19T09:38:00;98337.72;;;15.81;39.56
21980;BME280;11154;48.558;9.234;2022-12-19T09:40:03;98338.72;;;15.80;39.36
21980;BME280;11154;48.558;9.234;2022-12-19T09:44:39;98331.19;;;15.76;39.76
21980;BME280;11154;48.558;9.234;2022-12-19T09:46:51;98334.25;;;15.73;39.86
21980;BME280;11154;48.558;9.234;2022-12-19T09:48:54;98328.03;;;15.72;39.72
21980;BME280;11154;48.558;9.234;2022-12-19T09:51:02;98331.72;;;15.71;39.65
21980;BME280;11154;48.558;9.234;2022-12-19T09:53:11;98327.84;;;15.74;39.54
21980;BME280;11154;48.558;9.234;2022-12-19T09:55:19;98333.38;;;15.72;39.34
21980;BME280;11154;48.558;9.234;2022-12-19T09:57:25;98330.88;;;15.71;39.12
21980;BME280;11154;48.558;9.234;2022-12-19T09:59:35;98322.66;;;15.72;39.20
21980;BME280;11154;48.558;9.234;2022-12-19T10:01:49;98316.28;;;15.73;39.26
21980;BME280;11154;48.558;9.234;2022-12-19T10:03:58;98314.63;;;15.72;39.03
21980;BME280;11154;48.558;9.234;2022-12-19T10:06:06;98318.16;;;15.73;39.08
21980;BME280;11154;48.558;9.234;2022-12-19T10:08:15;98311.94;;;15.72;38.98
21980;BME280;11154;48.558;9.234;2022-12-19T10:10:22;98315.63;;;15.71;39.18
21980;BME280;11154;48.558;9.234;2022-12-19T10:12:39;98317.47;;;15.71;39.23
21980;BME280;11154;48.558;9.234;2022-12-19T10:14:53;98312.13;;;15.71;39.13
21980;BME280;11154;48.558;9.234;2022-12-19T10:17:05;98298.88;;;15.69;39.25
21980;BME280;11154;48.558;9.234;2022-12-19T10:19:14;98306.94;;;15.69;39.56
21980;BME280;11154;48.558;9.234;2022-12-19T10:21:29;98307.75;;;15.70;39.53
21980;BME280;11154;48.558;9.234;2022-12-19T10:23:46;98310.41;;;15.78;39.69
21980;BME280;11154;48.558;9.234;2022-12-19T10:25:58;98301.78;;;15.90;40.12
21980;BME280;11154;48.558;9.234;2022-12-19T10:28:11;98302.75;;;15.97;39.44
21980;BME280;11154;48.558;9.234;2022-12-19T10:30:18;98293.66;;;16.06;39.10
21980;BME280;11154;48.558;9.234;2022-12-19T10:32:26;98293.13;;;16.10;38.95
21980;BME280;11154;48.558;9.234;2022-12-19T10:34:34;98297.47;;;16.11;38.75
21980;BME280;11154;48.558;9.234;2022-12-19T10:36:42;98294.63;;;16.13;38.63
21980;BME280;11154;48.558;9.234;2022-12-19T10:38:50;98282.22;;;16.12;38.77
21980;BME280;11154;48.558;9.234;2022-12-19T10:41:09;98291.28;;;16.11;38.91
21980;BME280;11154;48.558;9.234;2022-12-19T10:43:19;98282.22;;;16.12;39.69
21980;BME280;11154;48.558;9.234;2022-12-19T10:45:33;98278.88;;;16.10;40.11
21980;BME280;11154;48.558;9.234;2022-12-19T10:47:39;98277.19;;;16.09;39.65
21980;BME280;11154;48.558;9.234;2022-12-19T10:49:41;98273.03;;;16.06;39.30
21980;BME280;11154;48.558;9.234;2022-12-19T10:51:56;98282.06;;;16.05;39.38
21980;BME280;11154;48.558;9.234;2022-12-19T10:53:59;98277.06;;;16.02;39.42
21980;BME280;11154;48.558;9.234;2022-12-19T10:56:01;98283.25;;;16.03;39.75
21980;BME280;11154;48.558;9.234;2022-12-19T10:58:19;98280.59;;;16.03;39.57
21980;BME280;11154;48.558;9.234;2022-12-19T11:00:21;98282.44;;;16.02;39.50
21980;BME280;11154;48.558;9.234;2022-12-19T11:02:32;98282.25;;;16.04;39.70
21980;BME280;11154;48.558;9.234;2022-12-19T11:04:35;98283.94;;;16.05;39.66